sensor_id;sensor_type;location;lat;lon;timestamp;P1;durP1;ratioP1;P2;durP2;ratioP2
43996;SDS011;34318;45.818;15.964;2022-08-19T00:00:03;5.45;;;4.18;;
43996;SDS011;34318;45.818;15.964;2022-08-19T00:02:31;7.13;;;3.83;;
43996;SDS011;34318;45.818;15.964;2022-08-19T00:04:58;4.95;;;4.00;;
43996;SDS011;34318;45.818;15.964;2022-08-19T00:07:34;7.10;;;4.10;;
43996;SDS011;34318;45.818;15.964;2022-08-19T00:10:01;6.38;;;3.80;;
43996;SDS011;34318;45.818;15.964;2022-08-19T00:12:29;5.07;;;4.43;;
43996;SDS011;34318;45.818;15.964;2022-08-19T00:14:56;5.03;;;3.72;;
43996;SDS011;34318;45.818;15.964;2022-08-19T00:17:26;6.07;;;4.05;;
43996;SDS011;34318;45.818;15.964;2022-08-19T00:19:53;4.88;;;4.10;;
43996;SDS011;34318;45.818;15.964;2022-08-19T00:22:20;6.90;;;3.97;;
43996;SDS011;34318;45.818;15.964;2022-08-19T00:24:47;6.60;;;4.00;;
43996;SDS011;34318;45.818;15.964;2022-08-19T00:27:16;4.80;;;4.28;;
43996;SDS011;34318;45.818;15.964;2022-08-19T00:29:51;4.82;;;4.00;;
43996;SDS011;34318;45.818;15.964;2022-08-19T00:32:19;4.88;;;4.03;;
43996;SDS011;34318;45.818;15.964;2022-08-19T00:34:52;4.22;;;3.75;;
43996;SDS011;34318;45.818;15.964;2022-08-19T00:37:21;5.88;;;4.18;;
43996;SDS011;34318;45.818;15.964;2022-08-19T00:39:49;6.13;;;3.97;;
43996;SDS011;34318;45.818;15.964;2022-08-19T00:42:18;4.20;;;3.80;;
43996;SDS011;34318;45.818;15.964;2022-08-19T00:44:47;5.18;;;3.90;;
43996;SDS011;34318;45.818;15.964;2022-08-19T00:47:16;4.70;;;4.22;;
43996;SDS011;34318;45.818;15.964;2022-08-19T00:49:45;8.95;;;5.10;;
43996;SDS011;34318;45.818;15.964;2022-08-19T00:52:29;4.90;;;4.25;;
43996;SDS011;34318;45.818;15.964;2022-08-19T00:54:59;5.07;;;4.07;;
43996;SDS011;34318;45.818;15.964;2022-08-19T00:57:35;6.45;;;4.68;;
43996;SDS011;34318;45.818;15.964;2022-08-19T01:00:06;7.28;;;4.07;;
43996;SDS011;34318;45.818;15.964;2022-08-19T01:02:39;6.05;;;4.13;;
43996;SDS011;34318;45.818;15.964;2022-08-19T01:05:13;8.27;;;4.78;;
43996;SDS011;34318;45.818;15.964;2022-08-19T01:07:46;5.13;;;4.53;;
43996;SDS011;34318;45.818;15.964;2022-08-19T01:10:20;5.35;;;4.20;;
43996;SDS011;34318;45.818;15.964;2022-08-19T01:12:49;6.30;;;4.57;;
43996;SDS011;34318;45.818;15.964;2022-08-19T01:15:19;6.28;;;4.47;;
43996;SDS011;34318;45.818;15.964;2022-08-19T01:17:51;6.38;;;4.90;;
43996;SDS011;34318;45.818;15.964;2022-08-19T01:20:22;5.65;;;4.35;;
43996;SDS011;34318;45.818;15.964;2022-08-19T01:22:54;12.52;;;4.93;;
43996;SDS011;34318;45.818;15.964;2022-08-19T01:25:28;6.30;;;4.88;;
43996;SDS011;34318;45.818;15.964;2022-08-19T01:27:58;6.40;;;4.72;;
43996;SDS011;34318;45.818;15.964;2022-08-19T01:30:36;5.22;;;4.28;;
43996;SDS011;34318;45.818;15.964;2022-08-19T01:33:03;6.45;;;5.40;;
43996;SDS011;34318;45.818;15.964;2022-08-19T01:35:33;8.80;;;5.00;;
43996;SDS011;34318;45.818;15.964;2022-08-19T01:38:05;5.82;;;4.47;;
43996;SDS011;34318;45.818;15.964;2022-08-19T01:40:38;9.60;;;4.63;;
43996;SDS011;34318;45.818;15.964;2022-08-19T01:43:06;5.80;;;4.70;;
43996;SDS011;34318;45.818;15.964;2022-08-19T01:45:34;7.07;;;5.13;;
43996;SDS011;34318;45.818;15.964;2022-08-19T01:48:02;6.18;;;4.63;;
43996;SDS011;34318;45.818;15.964;2022-08-19T01:50:32;6.20;;;4.68;;
43996;SDS011;34318;45.818;15.964;2022-08-19T01:53:01;5.22;;;4.13;;
43996;SDS011;34318;45.818;15.964;2022-08-19T01:55:36;5.32;;;4.03;;
43996;SDS011;34318;45.818;15.964;2022-08-19T01:58:07;7.07;;;4.80;;
43996;SDS011;34318;45.818;15.964;2022-08-19T02:00:56;5.07;;;4.57;;
43996;SDS011;34318;45.818;15.964;2022-08-19T02:03:25;6.38;;;4.93;;
43996;SDS011;34318;45.818;15.964;2022-08-19T02:05:57;6.18;;;4.78;;
43996;SDS011;34318;45.818;15.964;2022-08-19T02:08:26;6.65;;;4.55;;
43996;SDS011;34318;45.818;15.964;2022-08-19T02:10:55;7.25;;;4.95;;
43996;SDS011;34318;45.818;15.964;2022-08-19T02:13:23;5.88;;;4.32;;
43996;SDS011;34318;45.818;15.964;2022-08-19T02:15:51;6.25;;;4.90;;
43996;SDS011;34318;45.818;15.964;2022-08-19T02:18:18;6.05;;;4.85;;
43996;SDS011;34318;45.818;15.964;2022-08-19T02:20:52;6.68;;;4.68;;
43996;SDS011;34318;45.818;15.964;2022-08-19T02:23:20;6.57;;;4.68;;
43996;SDS011;34318;45.818;15.964;2022-08-19T02:25:47;6.22;;;4.40;;
43996;SDS011;34318;45.818;15.964;2022-08-19T02:28:15;4.45;;;4.05;;
43996;SDS011;34318;45.818;15.964;2022-08-19T02:30:44;5.82;;;4.95;;
43996;SDS011;34318;45.818;15.964;2022-08-19T02:33:13;6.35;;;4.90;;
43996;SDS011;34318;45.818;15.964;2022-08-19T02:35:44;7.85;;;4.93;;
43996;SDS011;34318;45.818;15.964;2022-08-19T02:38:14;6.75;;;4.72;;
43996;SDS011;34318;45.818;15.964;2022-08-19T02:40:57;7.40;;;4.88;;
43996;SDS011;34318;45.818;15.964;2022-08-19T02:43:26;8.40;;;4.65;;
43996;SDS011;34318;45.818;15.964;2022-08-19T02:45:54;5.75;;;4.38;;
43996;SDS011;34318;45.818;15.964;2022-08-19T02:48:22;6.55;;;4.38;;
43996;SDS011;34318;45.818;15.964;2022-08-19T02:50:51;5.38;;;4.72;;
43996;SDS011;34318;45.818;15.964;2022-08-19T02:53:22;6.72;;;4.47;;
43996;SDS011;34318;45.818;15.964;2022-08-19T02:55:53;4.97;;;4.57;;
43996;SDS011;34318;45.818;15.964;2022-08-19T02:58:22;7.50;;;4.22;;
43996;SDS011;34318;45.818;15.964;2022-08-19T03:00:51;6.00;;;4.47;;
43996;SDS011;34318;45.818;15.964;2022-08-19T03:03:20;7.10;;;4.78;;
43996;SDS011;34318;45.818;15.964;2022-08-19T03:05:47;6.65;;;4.97;;
43996;SDS011;34318;45.818;15.964;2022-08-19T03:08:22;7.40;;;4.53;;
43996;SDS011;34318;45.818;15.964;2022-08-19T03:10:50;7.85;;;4.40;;
43996;SDS011;34318;45.818;15.964;2022-08-19T03:13:19;8.02;;;4.50;;
43996;SDS011;34318;45.818;15.964;2022-08-19T03:15:47;6.10;;;4.80;;
43996;SDS011;34318;45.818;15.964;2022-08-19T03:18:14;7.78;;;4.55;;
43996;SDS011;34318;45.818;15.964;2022-08-19T03:20:44;5.70;;;4.30;;
43996;SDS011;34318;45.818;15.964;2022-08-19T03:23:12;5.32;;;4.57;;
43996;SDS011;34318;45.818;15.964;2022-08-19T03:25:46;7.07;;;4.20;;
43996;SDS011;34318;45.818;15.964;2022-08-19T03:28:39;4.90;;;4.40;;
43996;SDS011;34318;45.818;15.964;2022-08-19T03:31:20;6.38;;;5.03;;
43996;SDS011;34318;45.818;15.964;2022-08-19T03:34:12;6.03;;;4.30;;
43996;SDS011;34318;45.818;15.964;2022-08-19T03:37:02;5.75;;;4.30;;
43996;SDS011;34318;45.818;15.964;2022-08-19T03:39:32;4.68;;;4.20;;
43996;SDS011;34318;45.818;15.964;2022-08-19T03:42:00;9.80;;;5.22;;
43996;SDS011;34318;45.818;15.964;2022-08-19T03:44:48;6.03;;;4.20;;
43996;SDS011;34318;45.818;15.964;2022-08-19T03:47:15;11.02;;;5.22;;
43996;SDS011;34318;45.818;15.964;2022-08-19T03:49:43;6.78;;;4.65;;
43996;SDS011;34318;45.818;15.964;2022-08-19T03:52:11;5.13;;;4.18;;
43996;SDS011;34318;45.818;15.964;2022-08-19T03:54:41;6.75;;;3.97;;
43996;SDS011;34318;45.818;15.964;2022-08-19T03:57:08;6.10;;;4.03;;
43996;SDS011;34318;45.818;15.964;2022-08-19T03:59:36;8.43;;;4.40;;
43996;SDS011;34318;45.818;15.964;2022-08-19T04:02:08;6.28;;;3.85;;
43996;SDS011;34318;45.818;15.964;2022-08-19T04:04:38;7.10;;;3.63;;
43996;SDS011;34318;45.818;15.964;2022-08-19T04:07:11;8.27;;;3.50;;
43996;SDS011;34318;45.818;15.964;2022-08-19T04:09:44;6.07;;;3.58;;
43996;SDS011;34318;45.818;15.964;2022-08-19T04:12:11;5.65;;;3.78;;
43996;SDS011;34318;45.818;15.964;2022-08-19T04:14:40;5.68;;;3.45;;
43996;SDS011;34318;45.818;15.964;2022-08-19T04:17:07;9.23;;;3.88;;
43996;SDS011;34318;45.818;15.964;2022-08-19T04:19:34;7.28;;;3.78;;
43996;SDS011;34318;45.818;15.964;2022-08-19T04:22:02;6.43;;;3.95;;
43996;SDS011;34318;45.818;15.964;2022-08-19T04:24:30;7.40;;;3.28;;
43996;SDS011;34318;45.818;15.964;2022-08-19T04:27:03;6.70;;;4.05;;
43996;SDS011;34318;45.818;15.964;2022-08-19T04:29:34;6.93;;;3.85;;
43996;SDS011;34318;45.818;15.964;2022-08-19T04:32:02;5.55;;;3.28;;
43996;SDS011;34318;45.818;15.964;2022-08-19T04:34:34;5.45;;;3.22;;
43996;SDS011;34318;45.818;15.964;2022-08-19T04:37:24;7.13;;;3.42;;
43996;SDS011;34318;45.818;15.964;2022-08-19T04:39:56;8.45;;;3.85;;
43996;SDS011;34318;45.818;15.964;2022-08-19T04:42:44;5.53;;;3.42;;
43996;SDS011;34318;45.818;15.964;2022-08-19T04:45:14;5.30;;;3.63;;
43996;SDS011;34318;45.818;15.964;2022-08-19T04:47:43;6.38;;;4.05;;
43996;SDS011;34318;45.818;15.964;2022-08-19T04:50:23;7.28;;;4.05;;
43996;SDS011;34318;45.818;15.964;2022-08-19T04:53:01;5.60;;;3.53;;
43996;SDS011;34318;45.818;15.964;2022-08-19T04:55:28;8.30;;;3.88;;
43996;SDS011;34318;45.818;15.964;2022-08-19T04:57:55;6.95;;;3.33;;
43996;SDS011;34318;45.818;15.964;2022-08-19T05:00:23;6.18;;;3.70;;
43996;SDS011;34318;45.818;15.964;2022-08-19T05:02:53;5.72;;;3.28;;
43996;SDS011;34318;45.818;15.964;2022-08-19T05:05:21;5.65;;;3.58;;
43996;SDS011;34318;45.818;15.964;2022-08-19T05:07:50;8.98;;;4.10;;
43996;SDS011;34318;45.818;15.964;2022-08-19T05:10:20;4.80;;;3.53;;
43996;SDS011;34318;45.818;15.964;2022-08-19T05:12:47;7.30;;;3.70;;
43996;SDS011;34318;45.818;15.964;2022-08-19T05:15:17;7.65;;;3.33;;
43996;SDS011;34318;45.818;15.964;2022-08-19T05:17:46;5.68;;;3.20;;
43996;SDS011;34318;45.818;15.964;2022-08-19T05:20:34;6.60;;;3.53;;
43996;SDS011;34318;45.818;15.964;2022-08-19T05:23:23;5.32;;;3.58;;
43996;SDS011;34318;45.818;15.964;2022-08-19T05:25:52;7.47;;;3.50;;
43996;SDS011;34318;45.818;15.964;2022-08-19T05:28:19;5.20;;;3.50;;
43996;SDS011;34318;45.818;15.964;2022-08-19T05:30:47;7.00;;;3.60;;
43996;SDS011;34318;45.818;15.964;2022-08-19T05:33:17;4.40;;;3.40;;
43996;SDS011;34318;45.818;15.964;2022-08-19T05:35:44;6.15;;;3.38;;
43996;SDS011;34318;45.818;15.964;2022-08-19T05:38:12;8.23;;;3.75;;
43996;SDS011;34318;45.818;15.964;2022-08-19T05:40:39;6.15;;;3.75;;
43996;SDS011;34318;45.818;15.964;2022-08-19T05:43:07;5.78;;;3.30;;
43996;SDS011;34318;45.818;15.964;2022-08-19T05:45:38;8.80;;;4.18;;
43996;SDS011;34318;45.818;15.964;2022-08-19T05:48:12;4.68;;;3.50;;
43996;SDS011;34318;45.818;15.964;2022-08-19T05:50:41;7.03;;;3.42;;
43996;SDS011;34318;45.818;15.964;2022-08-19T05:53:08;7.15;;;3.58;;
43996;SDS011;34318;45.818;15.964;2022-08-19T05:55:37;5.28;;;3.80;;
43996;SDS011;34318;45.818;15.964;2022-08-19T05:58:04;8.68;;;3.67;;
43996;SDS011;34318;45.818;15.964;2022-08-19T06:00:43;6.95;;;4.07;;
43996;SDS011;34318;45.818;15.964;2022-08-19T06:03:11;5.70;;;3.40;;
43996;SDS011;34318;45.818;15.964;2022-08-19T06:05:38;6.38;;;3.80;;
43996;SDS011;34318;45.818;15.964;2022-08-19T06:08:17;8.40;;;3.78;;
43996;SDS011;34318;45.818;15.964;2022-08-19T06:10:44;6.75;;;3.30;;
43996;SDS011;34318;45.818;15.964;2022-08-19T06:13:11;6.75;;;3.40;;
43996;SDS011;34318;45.818;15.964;2022-08-19T06:15:38;7.82;;;3.58;;
43996;SDS011;34318;45.818;15.964;2022-08-19T06:18:07;8.60;;;3.88;;
43996;SDS011;34318;45.818;15.964;2022-08-19T06:20:35;7.03;;;3.40;;
43996;SDS011;34318;45.818;15.964;2022-08-19T06:23:21;4.32;;;2.85;;
43996;SDS011;34318;45.818;15.964;2022-08-19T06:25:50;5.57;;;3.25;;
43996;SDS011;34318;45.818;15.964;2022-08-19T06:28:17;8.57;;;3.65;;
43996;SDS011;34318;45.818;15.964;2022-08-19T06:30:44;6.38;;;4.22;;
43996;SDS011;34318;45.818;15.964;2022-08-19T06:33:11;7.10;;;3.92;;
43996;SDS011;34318;45.818;15.964;2022-08-19T06:35:38;6.25;;;3.70;;
43996;SDS011;34318;45.818;15.964;2022-08-19T06:38:14;7.05;;;3.55;;
43996;SDS011;34318;45.818;15.964;2022-08-19T06:40:42;5.10;;;3.50;;
43996;SDS011;34318;45.818;15.964;2022-08-19T06:43:12;5.80;;;3.60;;
43996;SDS011;34318;45.818;15.964;2022-08-19T06:45:43;6.22;;;3.67;;
43996;SDS011;34318;45.818;15.964;2022-08-19T06:48:12;7.03;;;3.40;;
43996;SDS011;34318;45.818;15.964;2022-08-19T06:50:45;6.18;;;3.70;;
43996;SDS011;34318;45.818;15.964;2022-08-19T06:53:14;5.57;;;2.72;;
43996;SDS011;34318;45.818;15.964;2022-08-19T06:55:41;6.03;;;3.67;;
43996;SDS011;34318;45.818;15.964;2022-08-19T06:58:08;9.52;;;3.35;;
43996;SDS011;34318;45.818;15.964;2022-08-19T07:00:35;8.57;;;4.22;;
43996;SDS011;34318;45.818;15.964;2022-08-19T07:03:02;7.30;;;3.78;;
43996;SDS011;34318;45.818;15.964;2022-08-19T07:05:38;5.72;;;3.70;;
43996;SDS011;34318;45.818;15.964;2022-08-19T07:08:10;7.43;;;4.00;;
43996;SDS011;34318;45.818;15.964;2022-08-19T07:10:41;10.35;;;3.50;;
43996;SDS011;34318;45.818;15.964;2022-08-19T07:13:09;8.43;;;3.58;;
43996;SDS011;34318;45.818;15.964;2022-08-19T07:15:37;5.55;;;3.22;;
43996;SDS011;34318;45.818;15.964;2022-08-19T07:18:05;5.93;;;3.28;;
43996;SDS011;34318;45.818;15.964;2022-08-19T07:20:38;6.13;;;3.42;;
43996;SDS011;34318;45.818;15.964;2022-08-19T07:23:10;5.82;;;3.10;;
43996;SDS011;34318;45.818;15.964;2022-08-19T07:25:42;7.35;;;3.17;;
43996;SDS011;34318;45.818;15.964;2022-08-19T07:28:09;3.80;;;3.10;;
43996;SDS011;34318;45.818;15.964;2022-08-19T07:30:50;6.25;;;3.58;;
43996;SDS011;34318;45.818;15.964;2022-08-19T07:33:18;7.10;;;3.58;;
43996;SDS011;34318;45.818;15.964;2022-08-19T07:35:46;10.05;;;3.60;;
43996;SDS011;34318;45.818;15.964;2022-08-19T07:38:13;6.43;;;4.03;;
43996;SDS011;34318;45.818;15.964;2022-08-19T07:40:42;5.97;;;4.38;;
43996;SDS011;34318;45.818;15.964;2022-08-19T07:43:11;7.35;;;4.38;;
43996;SDS011;34318;45.818;15.964;2022-08-19T07:45:43;12.48;;;4.57;;
43996;SDS011;34318;45.818;15.964;2022-08-19T07:48:10;10.07;;;4.93;;
43996;SDS011;34318;45.818;15.964;2022-08-19T07:50:37;7.35;;;4.53;;
43996;SDS011;34318;45.818;15.964;2022-08-19T07:53:04;10.85;;;5.07;;
43996;SDS011;34318;45.818;15.964;2022-08-19T07:55:32;8.48;;;4.80;;
43996;SDS011;34318;45.818;15.964;2022-08-19T07:58:08;7.07;;;4.38;;
43996;SDS011;34318;45.818;15.964;2022-08-19T08:00:35;10.18;;;5.40;;
43996;SDS011;34318;45.818;15.964;2022-08-19T08:03:04;11.15;;;5.55;;
43996;SDS011;34318;45.818;15.964;2022-08-19T08:05:31;12.35;;;5.10;;
43996;SDS011;34318;45.818;15.964;2022-08-19T08:08:20;10.88;;;6.13;;
43996;SDS011;34318;45.818;15.964;2022-08-19T08:11:12;9.55;;;4.80;;
43996;SDS011;34318;45.818;15.964;2022-08-19T08:13:40;8.10;;;5.97;;
43996;SDS011;34318;45.818;15.964;2022-08-19T08:16:08;10.25;;;6.05;;
43996;SDS011;34318;45.818;15.964;2022-08-19T08:18:39;15.73;;;5.78;;
43996;SDS011;34318;45.818;15.964;2022-08-19T08:21:16;14.80;;;6.03;;
43996;SDS011;34318;45.818;15.964;2022-08-19T08:23:43;12.50;;;5.32;;
43996;SDS011;34318;45.818;15.964;2022-08-19T08:26:10;10.82;;;5.22;;
43996;SDS011;34318;45.818;15.964;2022-08-19T08:28:44;10.02;;;5.10;;
43996;SDS011;34318;45.818;15.964;2022-08-19T08:31:14;9.05;;;4.53;;
43996;SDS011;34318;45.818;15.964;2022-08-19T08:33:42;13.07;;;5.63;;
43996;SDS011;34318;45.818;15.964;2022-08-19T08:36:12;7.43;;;4.85;;
43996;SDS011;34318;45.818;15.964;2022-08-19T08:38:41;6.95;;;4.80;;
43996;SDS011;34318;45.818;15.964;2022-08-19T08:44:00;13.70;;;5.32;;
43996;SDS011;34318;45.818;15.964;2022-08-19T08:46:46;12.00;;;5.53;;
43996;SDS011;34318;45.818;15.964;2022-08-19T08:49:20;19.63;;;5.82;;
43996;SDS011;34318;45.818;15.964;2022-08-19T08:52:06;10.48;;;5.10;;
43996;SDS011;34318;45.818;15.964;2022-08-19T08:54:43;10.25;;;5.00;;
43996;SDS011;34318;45.818;15.964;2022-08-19T09:00:06;8.75;;;4.85;;
43996;SDS011;34318;45.818;15.964;2022-08-19T09:02:41;10.02;;;5.00;;
43996;SDS011;34318;45.818;15.964;2022-08-19T09:05:16;7.65;;;4.80;;
43996;SDS011;34318;45.818;15.964;2022-08-19T09:08:33;13.80;;;4.70;;
43996;SDS011;34318;45.818;15.964;2022-08-19T09:11:10;10.35;;;5.15;;
43996;SDS011;34318;45.818;15.964;2022-08-19T09:17:15;10.77;;;6.03;;
43996;SDS011;34318;45.818;15.964;2022-08-19T09:22:19;9.68;;;5.70;;
43996;SDS011;34318;45.818;15.964;2022-08-19T09:24:52;14.38;;;6.47;;
43996;SDS011;34318;45.818;15.964;2022-08-19T09:27:21;9.32;;;5.32;;
43996;SDS011;34318;45.818;15.964;2022-08-19T09:30:13;10.15;;;5.85;;
43996;SDS011;34318;45.818;15.964;2022-08-19T09:32:48;5.78;;;5.10;;
43996;SDS011;34318;45.818;15.964;2022-08-19T09:35:20;12.65;;;6.05;;
43996;SDS011;34318;45.818;15.964;2022-08-19T09:37:49;10.57;;;5.38;;
43996;SDS011;34318;45.818;15.964;2022-08-19T09:40:25;10.18;;;6.07;;
43996;SDS011;34318;45.818;15.964;2022-08-19T09:43:03;9.85;;;6.32;;
43996;SDS011;34318;45.818;15.964;2022-08-19T09:45:38;15.23;;;6.33;;
43996;SDS011;34318;45.818;15.964;2022-08-19T09:48:06;10.85;;;5.47;;
43996;SDS011;34318;45.818;15.964;2022-08-19T09:50:37;12.02;;;6.47;;
43996;SDS011;34318;45.818;15.964;2022-08-19T09:53:17;9.95;;;5.57;;
43996;SDS011;34318;45.818;15.964;2022-08-19T09:55:44;13.18;;;5.93;;
43996;SDS011;34318;45.818;15.964;2022-08-19T09:58:13;11.68;;;6.53;;
43996;SDS011;34318;45.818;15.964;2022-08-19T10:00:40;13.90;;;6.40;;
43996;SDS011;34318;45.818;15.964;2022-08-19T10:03:16;10.60;;;6.65;;
43996;SDS011;34318;45.818;15.964;2022-08-19T10:06:00;9.80;;;5.82;;
43996;SDS011;34318;45.818;15.964;2022-08-19T10:08:42;14.38;;;6.00;;
43996;SDS011;34318;45.818;15.964;2022-08-19T10:11:15;11.23;;;5.45;;
43996;SDS011;34318;45.818;15.964;2022-08-19T10:13:54;11.00;;;5.07;;
43996;SDS011;34318;45.818;15.964;2022-08-19T10:16:28;8.57;;;5.38;;
43996;SDS011;34318;45.818;15.964;2022-08-19T10:19:04;9.55;;;5.72;;
43996;SDS011;34318;45.818;15.964;2022-08-19T10:21:32;8.65;;;5.22;;
43996;SDS011;34318;45.818;15.964;2022-08-19T10:24:01;11.45;;;5.70;;
43996;SDS011;34318;45.818;15.964;2022-08-19T10:26:35;8.63;;;5.72;;
43996;SDS011;34318;45.818;15.964;2022-08-19T10:29:25;8.43;;;5.30;;
43996;SDS011;34318;45.818;15.964;2022-08-19T10:32:00;11.32;;;6.57;;
43996;SDS011;34318;45.818;15.964;2022-08-19T10:34:29;23.10;;;20.70;;
43996;SDS011;34318;45.818;15.964;2022-08-19T10:36:59;36.65;;;33.13;;
43996;SDS011;34318;45.818;15.964;2022-08-19T10:39:30;39.78;;;36.17;;
43996;SDS011;34318;45.818;15.964;2022-08-19T10:42:09;27.63;;;24.90;;
43996;SDS011;34318;45.818;15.964;2022-08-19T10:44:42;18.00;;;16.10;;
43996;SDS011;34318;45.818;15.964;2022-08-19T10:47:12;14.82;;;13.25;;
43996;SDS011;34318;45.818;15.964;2022-08-19T10:49:59;14.95;;;13.07;;
43996;SDS011;34318;45.818;15.964;2022-08-19T10:52:45;11.90;;;8.48;;
43996;SDS011;34318;45.818;15.964;2022-08-19T10:55:21;13.82;;;7.82;;
43996;SDS011;34318;45.818;15.964;2022-08-19T10:58:29;9.93;;;7.45;;
43996;SDS011;34318;45.818;15.964;2022-08-19T11:01:53;9.95;;;7.00;;
43996;SDS011;34318;45.818;15.964;2022-08-19T11:04:41;9.88;;;5.80;;
43996;SDS011;34318;45.818;15.964;2022-08-19T11:07:12;13.57;;;5.55;;
43996;SDS011;34318;45.818;15.964;2022-08-19T11:09:44;8.93;;;5.75;;
43996;SDS011;34318;45.818;15.964;2022-08-19T11:12:20;13.50;;;9.25;;
43996;SDS011;34318;45.818;15.964;2022-08-19T11:15:31;14.60;;;9.50;;
43996;SDS011;34318;45.818;15.964;2022-08-19T11:18:04;13.65;;;8.13;;
43996;SDS011;34318;45.818;15.964;2022-08-19T11:20:38;10.88;;;6.85;;
43996;SDS011;34318;45.818;15.964;2022-08-19T11:23:08;7.35;;;6.15;;
43996;SDS011;34318;45.818;15.964;2022-08-19T11:25:41;9.82;;;6.57;;
43996;SDS011;34318;45.818;15.964;2022-08-19T11:28:14;9.63;;;6.43;;
43996;SDS011;34318;45.818;15.964;2022-08-19T11:30:45;12.07;;;5.80;;
43996;SDS011;34318;45.818;15.964;2022-08-19T11:33:13;13.75;;;10.13;;
43996;SDS011;34318;45.818;15.964;2022-08-19T11:36:41;15.18;;;11.23;;
43996;SDS011;34318;45.818;15.964;2022-08-19T11:39:45;12.95;;;10.07;;
43996;SDS011;34318;45.818;15.964;2022-08-19T11:42:23;22.20;;;15.43;;
43996;SDS011;34318;45.818;15.964;2022-08-19T11:45:31;19.02;;;16.05;;
43996;SDS011;34318;45.818;15.964;2022-08-19T11:48:04;17.90;;;13.38;;
43996;SDS011;34318;45.818;15.964;2022-08-19T11:50:35;15.88;;;12.05;;
43996;SDS011;34318;45.818;15.964;2022-08-19T11:53:06;14.05;;;9.48;;
43996;SDS011;34318;45.818;15.964;2022-08-19T11:55:37;11.20;;;7.82;;
43996;SDS011;34318;45.818;15.964;2022-08-19T11:58:16;13.43;;;8.05;;
43996;SDS011;34318;45.818;15.964;2022-08-19T12:00:51;11.70;;;6.60;;
43996;SDS011;34318;45.818;15.964;2022-08-19T12:03:42;11.80;;;7.53;;
43996;SDS011;34318;45.818;15.964;2022-08-19T12:06:11;11.13;;;6.63;;
43996;SDS011;34318;45.818;15.964;2022-08-19T12:09:04;10.18;;;6.18;;
43996;SDS011;34318;45.818;15.964;2022-08-19T12:12:08;10.70;;;6.20;;
43996;SDS011;34318;45.818;15.964;2022-08-19T12:15:06;19.10;;;11.48;;
43996;SDS011;34318;45.818;15.964;2022-08-19T12:17:51;17.48;;;12.10;;
43996;SDS011;34318;45.818;15.964;2022-08-19T12:20:39;18.08;;;10.30;;
43996;SDS011;34318;45.818;15.964;2022-08-19T12:23:24;13.85;;;8.00;;
43996;SDS011;34318;45.818;15.964;2022-08-19T12:26:24;14.75;;;9.13;;
43996;SDS011;34318;45.818;15.964;2022-08-19T12:29:29;14.85;;;7.90;;
43996;SDS011;34318;45.818;15.964;2022-08-19T12:32:06;15.60;;;8.40;;
43996;SDS011;34318;45.818;15.964;2022-08-19T12:34:37;34.58;;;30.98;;
43996;SDS011;34318;45.818;15.964;2022-08-19T12:37:09;38.28;;;34.58;;
43996;SDS011;34318;45.818;15.964;2022-08-19T12:39:41;29.65;;;24.67;;
43996;SDS011;34318;45.818;15.964;2022-08-19T12:42:12;25.27;;;15.65;;
43996;SDS011;34318;45.818;15.964;2022-08-19T12:44:51;25.15;;;16.33;;
43996;SDS011;34318;45.818;15.964;2022-08-19T12:47:43;18.05;;;11.93;;
43996;SDS011;34318;45.818;15.964;2022-08-19T12:57:56;18.50;;;7.55;;
43996;SDS011;34318;45.818;15.964;2022-08-19T13:00:23;14.93;;;6.95;;
43996;SDS011;34318;45.818;15.964;2022-08-19T13:02:56;7.57;;;5.30;;
43996;SDS011;34318;45.818;15.964;2022-08-19T13:05:53;19.30;;;7.82;;
43996;SDS011;34318;45.818;15.964;2022-08-19T13:08:23;15.45;;;6.35;;
43996;SDS011;34318;45.818;15.964;2022-08-19T13:10:52;12.32;;;6.03;;
43996;SDS011;34318;45.818;15.964;2022-08-19T13:13:21;10.98;;;6.05;;
43996;SDS011;34318;45.818;15.964;2022-08-19T13:15:52;15.27;;;5.50;;
43996;SDS011;34318;45.818;15.964;2022-08-19T13:18:25;11.52;;;5.22;;
43996;SDS011;34318;45.818;15.964;2022-08-19T13:21:12;10.10;;;5.53;;
43996;SDS011;34318;45.818;15.964;2022-08-19T13:23:51;11.27;;;5.78;;
43996;SDS011;34318;45.818;15.964;2022-08-19T13:29:43;13.70;;;5.95;;
43996;SDS011;34318;45.818;15.964;2022-08-19T13:32:33;10.15;;;5.65;;
43996;SDS011;34318;45.818;15.964;2022-08-19T13:35:57;10.05;;;5.43;;
43996;SDS011;34318;45.818;15.964;2022-08-19T13:38:40;11.75;;;7.43;;
43996;SDS011;34318;45.818;15.964;2022-08-19T13:41:08;15.50;;;9.82;;
43996;SDS011;34318;45.818;15.964;2022-08-19T13:43:40;14.50;;;9.50;;
43996;SDS011;34318;45.818;15.964;2022-08-19T13:46:11;23.90;;;8.77;;
43996;SDS011;34318;45.818;15.964;2022-08-19T13:48:53;32.25;;;25.80;;
43996;SDS011;34318;45.818;15.964;2022-08-19T13:51:27;34.35;;;30.85;;
43996;SDS011;34318;45.818;15.964;2022-08-19T13:53:56;29.83;;;26.08;;
43996;SDS011;34318;45.818;15.964;2022-08-19T13:56:23;24.67;;;17.02;;
43996;SDS011;34318;45.818;15.964;2022-08-19T13:58:58;25.42;;;16.10;;
43996;SDS011;34318;45.818;15.964;2022-08-19T14:01:31;21.00;;;15.25;;
43996;SDS011;34318;45.818;15.964;2022-08-19T14:04:02;21.17;;;14.23;;
43996;SDS011;34318;45.818;15.964;2022-08-19T14:06:37;18.73;;;13.48;;
43996;SDS011;34318;45.818;15.964;2022-08-19T14:09:06;19.20;;;12.20;;
43996;SDS011;34318;45.818;15.964;2022-08-19T14:11:38;22.83;;;12.88;;
43996;SDS011;34318;45.818;15.964;2022-08-19T14:14:15;17.98;;;10.98;;
43996;SDS011;34318;45.818;15.964;2022-08-19T14:16:45;14.50;;;10.88;;
43996;SDS011;34318;45.818;15.964;2022-08-19T14:19:12;14.52;;;9.10;;
43996;SDS011;34318;45.818;15.964;2022-08-19T14:21:39;15.82;;;9.90;;
43996;SDS011;34318;45.818;15.964;2022-08-19T14:24:07;12.10;;;8.77;;
43996;SDS011;34318;45.818;15.964;2022-08-19T14:26:35;9.02;;;7.32;;
43996;SDS011;34318;45.818;15.964;2022-08-19T14:29:02;10.07;;;6.72;;
43996;SDS011;34318;45.818;15.964;2022-08-19T14:31:32;12.48;;;7.78;;
43996;SDS011;34318;45.818;15.964;2022-08-19T14:33:59;12.20;;;7.38;;
43996;SDS011;34318;45.818;15.964;2022-08-19T14:36:30;14.05;;;7.97;;
43996;SDS011;34318;45.818;15.964;2022-08-19T14:39:21;11.63;;;7.45;;
43996;SDS011;34318;45.818;15.964;2022-08-19T14:41:48;15.43;;;7.95;;
43996;SDS011;34318;45.818;15.964;2022-08-19T14:44:20;15.30;;;8.45;;
43996;SDS011;34318;45.818;15.964;2022-08-19T14:47:01;11.40;;;7.38;;
43996;SDS011;34318;45.818;15.964;2022-08-19T14:49:42;15.45;;;7.57;;
43996;SDS011;34318;45.818;15.964;2022-08-19T14:52:14;11.10;;;7.03;;
43996;SDS011;34318;45.818;15.964;2022-08-19T14:54:43;12.45;;;7.22;;
43996;SDS011;34318;45.818;15.964;2022-08-19T14:57:12;13.02;;;6.70;;
43996;SDS011;34318;45.818;15.964;2022-08-19T14:59:44;13.10;;;7.07;;
43996;SDS011;34318;45.818;15.964;2022-08-19T15:02:15;11.07;;;6.25;;
43996;SDS011;34318;45.818;15.964;2022-08-19T15:05:00;12.98;;;6.10;;
43996;SDS011;34318;45.818;15.964;2022-08-19T15:07:28;10.20;;;5.85;;
43996;SDS011;34318;45.818;15.964;2022-08-19T15:09:58;6.57;;;5.40;;
43996;SDS011;34318;45.818;15.964;2022-08-19T15:12:26;10.38;;;6.47;;
43996;SDS011;34318;45.818;15.964;2022-08-19T15:14:53;12.88;;;5.75;;
43996;SDS011;34318;45.818;15.964;2022-08-19T15:17:22;9.73;;;5.55;;
43996;SDS011;34318;45.818;15.964;2022-08-19T15:20:13;9.75;;;5.38;;
43996;SDS011;34318;45.818;15.964;2022-08-19T15:22:49;10.57;;;5.35;;
43996;SDS011;34318;45.818;15.964;2022-08-19T15:25:17;7.47;;;5.15;;
43996;SDS011;34318;45.818;15.964;2022-08-19T15:27:46;8.15;;;5.05;;